Time;durP1;ratioP1;P1;durP2;ratioP2;P2;SDS_P1;SDS_P2;PMS_P1;PMS_P2;Temp;Humidity;BMP_temperature;BMP_pressure;BME280_temperature;BME280_humidity;BME280_pressure;Samples;Min_cycle;Max_cycle;Signal;HPM_P1;HPM_P2
2022/02/21 00:01:08;;;;;;;3.83;2.03;;;21.80;50.90;;;;;;5009455;28;93002;-86
2022/02/21 00:03:33;;;;;;;4.18;2.03;;;21.80;50.80;;;;;;5009550;28;92095;-86
2022/02/21 00:05:59;;;;;;;4.47;1.80;;;21.80;51.00;;;;;;5009678;28;91674;-85
2022/02/21 00:08:24;;;;;;;3.88;2.17;;;21.80;50.80;;;;;;5006514;28;95670;-86
2022/02/21 00:10:50;;;;;;;4.07;1.70;;;21.80;50.90;;;;;;5009013;28;92609;-86
2022/02/21 00:13:16;;;;;;;4.78;1.95;;;21.70;51.50;;;;;;5008864;28;93093;-86
2022/02/21 00:15:41;;;;;;;4.10;2.05;;;21.70;50.50;;;;;;5009169;28;93005;-86
2022/02/21 00:18:07;;;;;;;4.70;2.05;;;21.70;50.60;;;;;;5008966;28;92900;-86
2022/02/21 00:20:36;;;;;;;4.05;1.83;;;21.70;50.70;;;;;;5008989;28;92856;-86
2022/02/21 00:23:05;;;;;;;3.00;1.73;;;21.70;51.00;;;;;;5009691;28;93214;-85
2022/02/21 00:25:31;;;;;;;4.13;1.92;;;21.70;50.80;;;;;;5009134;28;92855;-86
2022/02/21 00:27:57;;;;;;;2.50;1.50;;;21.70;50.80;;;;;;5007622;28;93259;-86
2022/02/21 00:30:22;;;;;;;3.03;1.80;;;21.70;50.90;;;;;;5006303;28;95007;-85
2022/02/21 00:32:48;;;;;;;3.58;1.85;;;21.70;50.50;;;;;;5008784;28;92781;-84
2022/02/21 00:35:14;;;;;;;5.75;2.00;;;21.70;50.60;;;;;;5006325;28;93196;-85
2022/02/21 00:37:39;;;;;;;3.97;1.60;;;21.70;50.50;;;;;;5008108;28;94063;-86
2022/02/21 00:40:05;;;;;;;3.83;1.67;;;21.60;50.50;;;;;;5009033;28;93190;-85
2022/02/21 00:42:31;;;;;;;4.65;1.70;;;21.60;50.60;;;;;;5009518;28;93393;-84
2022/02/21 00:44:58;;;;;;;4.45;1.80;;;21.60;50.40;;;;;;5009427;28;92473;-85
2022/02/21 00:47:26;;;;;;;3.72;1.90;;;21.60;50.40;;;;;;5008634;28;92936;-86
2022/02/21 00:49:53;;;;;;;4.85;2.28;;;21.60;50.40;;;;;;5023360;28;95112;-85
2022/02/21 00:52:19;;;;;;;4.13;1.73;;;21.60;50.50;;;;;;5008570;28;92869;-85
2022/02/21 00:54:44;;;;;;;3.10;1.90;;;21.60;50.40;;;;;;5008895;28;91970;-85
2022/02/21 00:57:10;;;;;;;3.38;1.58;;;21.60;50.30;;;;;;5009026;28;92833;-85
2022/02/21 00:59:36;;;;;;;4.13;1.88;;;21.50;50.40;;;;;;5008992;28;92151;-86
2022/02/21 01:02:01;;;;;;;5.18;1.92;;;21.50;50.20;;;;;;5007923;28;93705;-84
2022/02/21 01:04:27;;;;;;;4.57;1.85;;;21.50;50.30;;;;;;5007328;28;92838;-84
2022/02/21 01:07:03;;;;;;;4.50;1.70;;;21.60;50.30;;;;;;5005858;28;95410;-86
2022/02/21 01:09:28;;;;;;;3.78;1.52;;;21.50;50.30;;;;;;5007509;28;93509;-85
2022/02/21 01:11:54;;;;;;;3.72;1.73;;;21.50;50.30;;;;;;5006921;28;92408;-86
2022/02/21 01:14:20;;;;;;;5.13;1.88;;;21.50;50.20;;;;;;5008210;28;92590;-84
2022/02/21 01:16:45;;;;;;;4.15;1.60;;;21.50;50.20;;;;;;5007499;28;92561;-85
2022/02/21 01:19:11;;;;;;;4.68;1.98;;;21.50;50.20;;;;;;5006936;28;92710;-84
2022/02/21 01:21:36;;;;;;;4.18;1.67;;;21.50;50.20;;;;;;5008758;28;93297;-86
2022/02/21 01:24:02;;;;;;;3.33;1.65;;;21.50;50.00;;;;;;5008255;28;92365;-86
2022/02/21 01:26:28;;;;;;;3.25;1.60;;;21.50;50.00;;;;;;5007071;28;93721;-85
2022/02/21 01:28:54;;;;;;;4.53;1.98;;;21.50;49.90;;;;;;5006830;28;92903;-84
2022/02/21 01:31:20;;;;;;;5.32;1.98;;;21.40;49.90;;;;;;5005593;28;92729;-85
2022/02/21 01:33:46;;;;;;;4.40;1.80;;;21.40;49.80;;;;;;5022568;28;92487;-83
2022/02/21 01:36:11;;;;;;;3.50;1.70;;;21.40;49.70;;;;;;5022084;28;94527;-85
2022/02/21 01:38:37;;;;;;;3.80;1.50;;;21.40;49.80;;;;;;5005747;28;95024;-85
2022/02/21 01:41:03;;;;;;;5.13;1.73;;;21.50;50.50;;;;;;5005756;28;92354;-85
2022/02/21 01:43:29;;;;;;;5.90;1.80;;;21.40;49.80;;;;;;5005915;28;92221;-85
2022/02/21 01:45:55;;;;;;;4.70;2.00;;;21.40;49.80;;;;;;5007629;28;92962;-84
2022/02/21 01:48:20;;;;;;;3.35;1.90;;;21.40;49.80;;;;;;5007637;28;92461;-85
2022/02/21 01:50:46;;;;;;;3.08;1.70;;;21.40;49.70;;;;;;5005972;28;93514;-85
2022/02/21 01:53:17;;;;;;;5.15;1.80;;;21.40;49.70;;;;;;5007815;28;92572;-85
2022/02/21 01:55:44;;;;;;;3.47;1.70;;;21.40;49.60;;;;;;5007683;28;93000;-84
2022/02/21 01:58:10;;;;;;;4.05;1.70;;;21.40;49.70;;;;;;5007474;28;93093;-86
2022/02/21 02:00:36;;;;;;;3.72;1.65;;;21.40;49.60;;;;;;5007687;28;92790;-82
2022/02/21 02:03:01;;;;;;;3.63;1.63;;;21.40;49.70;;;;;;5007414;28;92747;-85
2022/02/21 02:05:28;;;;;;;3.97;1.77;;;21.40;49.90;;;;;;5006738;28;93234;-85
2022/02/21 02:07:53;;;;;;;4.45;2.15;;;21.40;49.60;;;;;;5006519;28;95637;-84
2022/02/21 02:10:19;;;;;;;3.28;1.70;;;21.40;49.60;;;;;;5008334;28;92766;-85
2022/02/21 02:12:46;;;;;;;3.42;1.67;;;21.40;49.60;;;;;;5005741;28;92915;-83
2022/02/21 02:15:14;;;;;;;2.47;1.40;;;21.40;49.70;;;;;;5006649;28;94649;-86
2022/02/21 02:17:41;;;;;;;3.85;1.83;;;21.40;49.50;;;;;;5005365;28;96285;-85
2022/02/21 02:20:07;;;;;;;2.72;1.38;;;21.30;49.50;;;;;;5006666;28;93139;-84
2022/02/21 02:22:33;;;;;;;3.25;1.55;;;21.30;49.40;;;;;;5006978;28;92666;-85
2022/02/21 02:24:58;;;;;;;5.03;1.63;;;21.30;49.30;;;;;;5007136;28;92733;-85
2022/02/21 02:27:25;;;;;;;4.72;1.85;;;21.30;49.40;;;;;;5007284;28;92822;-84
2022/02/21 02:29:54;;;;;;;4.35;1.63;;;21.30;49.20;;;;;;5007291;28;92555;-85
2022/02/21 02:32:21;;;;;;;3.78;1.48;;;21.30;49.10;;;;;;5007956;28;91303;-84
2022/02/21 02:34:47;;;;;;;4.95;1.50;;;21.30;49.20;;;;;;5007423;28;92760;-85
2022/02/21 02:37:22;;;;;;;3.55;1.63;;;21.30;49.20;;;;;;5006066;28;94933;-85
2022/02/21 02:39:48;;;;;;;3.40;1.63;;;21.30;49.00;;;;;;5006510;28;93763;-84
2022/02/21 02:42:16;;;;;;;3.42;1.48;;;21.30;48.80;;;;;;5007242;28;92832;-85
2022/02/21 02:44:42;;;;;;;2.90;1.55;;;21.30;48.80;;;;;;5006636;28;92648;-86
2022/02/21 02:47:10;;;;;;;2.97;1.50;;;21.20;49.40;;;;;;5006813;28;92963;-85
2022/02/21 02:49:37;;;;;;;4.13;1.58;;;21.30;48.80;;;;;;5006878;28;92900;-85
2022/02/21 02:52:04;;;;;;;4.78;1.83;;;21.30;48.70;;;;;;5006387;28;92379;-85
2022/02/21 02:54:30;;;;;;;4.90;1.85;;;21.20;48.60;;;;;;5006980;28;93054;-84
2022/02/21 02:56:55;;;;;;;4.32;1.63;;;21.20;48.50;;;;;;5006434;28;92520;-84
2022/02/21 02:59:24;;;;;;;3.90;1.70;;;21.20;48.40;;;;;;5006244;28;92109;-83
2022/02/21 03:01:50;;;;;;;4.60;2.00;;;21.20;48.40;;;;;;5007704;28;93558;-86
2022/02/21 03:04:16;;;;;;;3.75;1.50;;;21.20;48.40;;;;;;5007247;28;93765;-86
2022/02/21 03:06:41;;;;;;;3.22;1.52;;;21.20;48.40;;;;;;5007480;28;93703;-85
2022/02/21 03:09:07;;;;;;;3.58;1.52;;;21.20;48.20;;;;;;5007838;28;92178;-85
2022/02/21 03:11:32;;;;;;;3.35;1.52;;;21.20;48.80;;;;;;5007550;28;92425;-85
2022/02/21 03:13:59;;;;;;;4.68;2.05;;;21.20;48.30;;;;;;5007343;28;92541;-85
2022/02/21 03:16:36;;;;;;;3.00;1.58;;;21.20;48.20;;;;;;5007081;28;92392;-85
2022/02/21 03:19:02;;;;;;;2.97;1.67;;;21.20;48.10;;;;;;5008666;28;92888;-85
2022/02/21 03:21:27;;;;;;;4.88;1.90;;;21.10;48.60;;;;;;5007550;28;91279;-86
2022/02/21 03:23:53;;;;;;;3.25;1.48;;;21.10;47.90;;;;;;5006720;28;93834;-85
2022/02/21 03:26:18;;;;;;;6.03;1.70;;;21.10;48.10;;;;;;5007734;28;92882;-82
2022/02/21 03:28:44;;;;;;;3.33;1.73;;;21.10;48.00;;;;;;5007639;28;93359;-84
2022/02/21 03:31:11;;;;;;;4.57;1.85;;;21.10;48.00;;;;;;5007249;28;92495;-85
2022/02/21 03:33:37;;;;;;;3.42;1.52;;;21.10;47.90;;;;;;5006836;28;93126;-86
2022/02/21 03:36:03;;;;;;;4.30;1.70;;;21.10;47.80;;;;;;5010632;28;92927;-83
2022/02/21 03:38:28;;;;;;;4.07;2.00;;;21.10;48.40;;;;;;5011298;28;92017;-85
2022/02/21 03:40:54;;;;;;;4.43;2.13;;;21.10;47.70;;;;;;5010414;28;93100;-85
2022/02/21 03:43:20;;;;;;;4.32;1.80;;;21.10;47.50;;;;;;5010242;28;93568;-85
2022/02/21 03:45:45;;;;;;;4.05;1.80;;;21.10;47.60;;;;;;5010122;28;92376;-83
2022/02/21 03:48:11;;;;;;;3.63;1.67;;;21.10;47.40;;;;;;5010974;28;92422;-85
2022/02/21 03:50:37;;;;;;;3.78;1.60;;;21.10;47.40;;;;;;5010148;28;93552;-83
2022/02/21 03:53:03;;;;;;;5.63;1.80;;;21.10;47.40;;;;;;5007663;28;93049;-82
2022/02/21 03:55:28;;;;;;;5.30;1.95;;;21.00;47.30;;;;;;5008838;28;93229;-83
2022/02/21 03:57:54;;;;;;;3.75;1.60;;;21.10;47.30;;;;;;5010635;28;92589;-84
2022/02/21 04:00:24;;;;;;;4.85;1.60;;;21.10;47.40;;;;;;5010283;28;92060;-84
2022/02/21 04:02:52;;;;;;;4.63;2.08;;;21.00;47.30;;;;;;5009338;28;93101;-83
2022/02/21 04:05:18;;;;;;;4.88;1.80;;;21.00;47.20;;;;;;5009134;28;92596;-85
2022/02/21 04:07:44;;;;;;;4.65;1.80;;;21.10;47.10;;;;;;5009744;28;91894;-85
2022/02/21 04:10:14;;;;;;;4.28;1.80;;;21.00;46.90;;;;;;5010027;28;91872;-84
2022/02/21 04:12:40;;;;;;;4.63;1.92;;;21.00;46.90;;;;;;5009903;28;93302;-84
2022/02/21 04:15:08;;;;;;;3.30;1.70;;;21.00;46.90;;;;;;5009762;28;92425;-83
2022/02/21 04:17:48;;;;;;;4.50;2.08;;;21.00;46.80;;;;;;5006446;28;94069;-85
2022/02/21 04:20:16;;;;;;;4.75;1.98;;;21.00;46.80;;;;;;5007833;28;92915;-84
2022/02/21 04:22:42;;;;;;;4.25;1.85;;;21.00;46.90;;;;;;5009109;28;92961;-85
2022/02/21 04:25:09;;;;;;;3.58;1.63;;;21.00;46.90;;;;;;5009383;28;92962;-85
2022/02/21 04:27:50;;;;;;;4.45;1.77;;;21.00;46.80;;;;;;5007619;28;92029;-84
2022/02/21 04:30:25;;;;;;;4.50;1.70;;;21.00;46.80;;;;;;5007522;28;92988;-85
2022/02/21 04:32:51;;;;;;;5.32;2.00;;;21.00;46.80;;;;;;5009184;28;92711;-84
2022/02/21 04:35:19;;;;;;;4.43;1.98;;;21.00;46.70;;;;;;5009717;28;92831;-85
2022/02/21 04:37:45;;;;;;;3.22;1.83;;;21.00;46.80;;;;;;5008413;28;92383;-84
2022/02/21 04:40:14;;;;;;;2.40;1.52;;;21.00;46.70;;;;;;5008409;28;92370;-85
2022/02/21 04:42:40;;;;;;;4.80;2.05;;;21.00;46.50;;;;;;5005271;28;96228;-84
2022/02/21 04:45:07;;;;;;;3.25;1.52;;;20.90;46.50;;;;;;5007756;28;94067;-82
2022/02/21 04:47:33;;;;;;;5.25;1.88;;;20.90;46.50;;;;;;5009358;28;92294;-84
2022/02/21 04:49:59;;;;;;;3.95;1.98;;;20.90;46.50;;;;;;5009331;28;92810;-85
2022/02/21 04:52:25;;;;;;;3.47;1.55;;;20.90;46.40;;;;;;5008717;28;93311;-83
2022/02/21 04:54:50;;;;;;;4.93;1.80;;;20.90;46.30;;;;;;5008542;28;92288;-84
2022/02/21 04:57:16;;;;;;;3.60;1.52;;;20.90;46.40;;;;;;5008616;28;92527;-84
2022/02/21 04:59:41;;;;;;;3.95;1.70;;;20.90;46.20;;;;;;5008715;28;92012;-85
2022/02/21 05:02:07;;;;;;;4.47;1.85;;;20.90;46.30;;;;;;5008527;28;92743;-85
2022/02/21 05:04:35;;;;;;;4.05;1.92;;;20.90;46.20;;;;;;5007625;28;92690;-84
2022/02/21 05:07:03;;;;;;;4.68;1.80;;;20.90;46.20;;;;;;5008081;28;92942;-84
2022/02/21 05:09:29;;;;;;;5.10;1.67;;;20.90;46.30;;;;;;5007781;28;92406;-82
2022/02/21 05:11:54;;;;;;;3.85;1.90;;;20.90;46.20;;;;;;5007334;28;93196;-84
2022/02/21 05:14:20;;;;;;;4.68;2.08;;;20.90;46.10;;;;;;5005687;28;95284;-84
2022/02/21 05:16:46;;;;;;;3.50;1.83;;;20.90;46.20;;;;;;5007679;28;92347;-83
2022/02/21 05:19:12;;;;;;;3.25;1.88;;;20.90;46.30;;;;;;5006399;28;92910;-85
2022/02/21 05:21:37;;;;;;;4.40;2.05;;;20.80;46.10;;;;;;5008400;28;92615;-83
2022/02/21 05:24:03;;;;;;;3.63;1.67;;;20.80;46.10;;;;;;5006311;28;95224;-82
2022/02/21 05:26:29;;;;;;;5.10;2.08;;;20.80;45.90;;;;;;5008722;28;92595;-84
2022/02/21 05:28:54;;;;;;;5.20;1.83;;;20.80;46.00;;;;;;5008652;28;92406;-82
2022/02/21 05:31:23;;;;;;;4.75;2.03;;;20.80;45.80;;;;;;5007891;28;94063;-84
2022/02/21 05:33:50;;;;;;;4.73;2.20;;;20.80;45.90;;;;;;5005560;28;96456;-84
2022/02/21 05:36:16;;;;;;;6.20;2.10;;;20.80;45.90;;;;;;5008253;28;92685;-84
2022/02/21 05:38:44;;;;;;;4.70;1.90;;;20.80;45.90;;;;;;5008573;28;92444;-85
2022/02/21 05:41:10;;;;;;;4.47;1.92;;;20.80;45.80;;;;;;5008170;28;93166;-82
2022/02/21 05:43:36;;;;;;;4.05;1.58;;;20.80;45.70;;;;;;5007841;28;92579;-83
2022/02/21 05:46:02;;;;;;;4.53;1.70;;;20.80;45.70;;;;;;5008110;28;93041;-85
2022/02/21 05:48:35;;;;;;;4.70;1.90;;;20.80;45.60;;;;;;5008246;28;92095;-84
2022/02/21 05:51:01;;;;;;;4.32;2.17;;;20.80;45.50;;;;;;5007442;28;93558;-84
2022/02/21 05:53:26;;;;;;;5.38;2.08;;;20.80;45.50;;;;;;5007262;28;92763;-82
2022/02/21 05:55:52;;;;;;;4.57;1.92;;;20.80;45.50;;;;;;5008773;28;94043;-85
2022/02/21 05:58:18;;;;;;;4.53;2.00;;;20.80;45.50;;;;;;5007324;28;92825;-85
2022/02/21 06:00:46;;;;;;;3.60;1.80;;;20.80;45.40;;;;;;5008155;28;92477;-83
2022/02/21 06:03:11;;;;;;;4.20;1.67;;;20.80;45.40;;;;;;5007194;28;92355;-83
2022/02/21 06:05:37;;;;;;;4.97;2.20;;;20.80;45.50;;;;;;5005963;28;93437;-83
2022/02/21 06:08:03;;;;;;;4.97;2.10;;;20.80;45.40;;;;;;5007908;28;92480;-84
2022/02/21 06:10:28;;;;;;;4.88;2.13;;;20.70;45.40;;;;;;5007965;28;92772;-82
2022/02/21 06:12:54;;;;;;;4.13;1.67;;;20.70;45.40;;;;;;5007966;28;92500;-84
2022/02/21 06:15:19;;;;;;;4.38;1.63;;;20.70;45.40;;;;;;5008530;28;93018;-82
2022/02/21 06:17:45;;;;;;;5.85;2.10;;;20.70;45.30;;;;;;5007360;28;92506;-84
2022/02/21 06:20:11;;;;;;;4.10;1.90;;;20.70;45.30;;;;;;5005890;28;93689;-85
2022/02/21 06:22:37;;;;;;;4.95;1.90;;;20.70;45.20;;;;;;5007515;28;94394;-82
2022/02/21 06:25:03;;;;;;;4.40;2.40;;;20.70;45.20;;;;;;5006138;28;93139;-84
2022/02/21 06:27:29;;;;;;;4.85;2.05;;;20.70;45.10;;;;;;5005266;28;92637;-85
2022/02/21 06:29:54;;;;;;;5.60;2.00;;;20.70;45.20;;;;;;5005517;28;93050;-83
2022/02/21 06:32:20;;;;;;;7.10;2.17;;;20.70;45.30;;;;;;5007513;28;93101;-84
2022/02/21 06:34:48;;;;;;;7.47;2.42;;;20.70;44.30;;;;;;5022380;28;92615;-83
2022/02/21 06:37:24;;;;;;;6.72;2.22;;;20.60;44.80;;;;;;5005296;28;91449;-83
2022/02/21 06:39:50;;;;;;;5.45;1.90;;;20.70;44.70;;;;;;5006877;28;92766;-85
2022/02/21 06:42:15;;;;;;;8.43;2.33;;;20.70;44.80;;;;;;5006291;28;92571;-86
2022/02/21 06:44:41;;;;;;;5.15;2.60;;;20.70;45.40;;;;;;5005241;28;93157;-83
2022/02/21 06:47:07;;;;;;;4.35;2.20;;;20.80;46.10;;;;;;5007349;28;93055;-84
2022/02/21 06:49:32;;;;;;;4.43;1.98;;;20.80;46.00;;;;;;5006961;28;92818;-84
2022/02/21 06:51:58;;;;;;;5.53;1.95;;;20.80;45.60;;;;;;5008155;28;92547;-84
2022/02/21 06:54:23;;;;;;;8.93;2.78;;;20.90;45.80;;;;;;5005957;28;92484;-84
2022/02/21 06:56:49;;;;;;;5.47;2.20;;;20.90;45.30;;;;;;5007867;28;92615;-83
2022/02/21 06:59:15;;;;;;;7.70;2.60;;;21.00;45.10;;;;;;5007425;28;92898;-85
2022/02/21 07:01:41;;;;;;;6.50;2.63;;;21.00;45.10;;;;;;5007916;28;92682;-84
2022/02/21 07:04:06;;;;;;;6.45;2.40;;;21.00;45.00;;;;;;5006488;28;92548;-83
2022/02/21 07:06:35;;;;;;;6.43;2.20;;;21.00;45.20;;;;;;5006690;28;93078;-85
2022/02/21 07:09:01;;;;;;;5.53;2.30;;;21.10;44.90;;;;;;5007668;28;94054;-85
2022/02/21 07:11:26;;;;;;;5.75;2.13;;;21.10;44.70;;;;;;5009912;28;93250;-83
2022/02/21 07:13:52;;;;;;;5.22;2.15;;;21.10;44.30;;;;;;5010745;28;93046;-85
2022/02/21 07:16:18;;;;;;;4.18;2.25;;;21.10;44.20;;;;;;5011085;28;92635;-84
2022/02/21 07:18:43;;;;;;;4.15;1.90;;;21.10;44.60;;;;;;5008358;28;92670;-84
2022/02/21 07:21:09;;;;;;;5.05;2.13;;;21.10;44.20;;;;;;5007701;28;94994;-84
2022/02/21 07:23:42;;;;;;;6.93;2.25;;;21.10;43.40;;;;;;5011072;28;92705;-84
2022/02/21 07:26:08;;;;;;;5.28;2.20;;;21.10;43.60;;;;;;5011349;28;91376;-83
2022/02/21 07:28:33;;;;;;;4.97;2.20;;;21.10;43.50;;;;;;5009998;28;93180;-83
2022/02/21 07:30:59;;;;;;;6.18;2.03;;;21.10;43.30;;;;;;5008646;28;92496;-82
2022/02/21 07:33:24;;;;;;;6.63;2.13;;;21.10;42.90;;;;;;5009143;28;93753;-81
2022/02/21 07:35:50;;;;;;;5.00;2.42;;;21.10;43.80;;;;;;5009981;28;92360;-84
2022/02/21 07:38:16;;;;;;;8.85;2.65;;;21.10;44.40;;;;;;5010472;28;94371;-81
2022/02/21 07:40:41;;;;;;;6.70;1.88;;;21.10;42.60;;;;;;5007394;28;94552;-84
2022/02/21 07:43:08;;;;;;;5.05;2.13;;;21.10;41.90;;;;;;5010354;28;92204;-85
2022/02/21 07:45:34;;;;;;;6.43;2.10;;;21.10;43.90;;;;;;5015388;28;92531;-83
2022/02/21 07:48:01;;;;;;;4.10;1.85;;;21.10;43.50;;;;;;5010460;28;92958;-84
2022/02/21 07:50:33;;;;;;;7.55;2.30;;;21.10;42.90;;;;;;5010279;28;92242;-84
2022/02/21 07:52:59;;;;;;;8.90;2.50;;;21.10;43.50;;;;;;5009030;28;93051;-84
2022/02/21 07:55:25;;;;;;;5.70;2.35;;;21.10;44.20;;;;;;5009341;28;92080;-83
2022/02/21 07:57:51;;;;;;;6.53;2.22;;;21.10;44.70;;;;;;5009386;28;94007;-85
2022/02/21 08:00:35;;;;;;;8.10;2.35;;;21.20;44.70;;;;;;5007392;28;96453;-84
2022/02/21 08:03:01;;;;;;;5.38;2.17;;;21.10;43.80;;;;;;5010430;28;93225;-83
2022/02/21 08:05:27;;;;;;;6.45;2.30;;;21.20;43.70;;;;;;5009820;28;92275;-85
2022/02/21 08:07:52;;;;;;;7.80;1.95;;;21.20;44.90;;;;;;5010560;28;92529;-83
2022/02/21 08:10:18;;;;;;;5.97;2.15;;;21.20;44.50;;;;;;5010255;28;92514;-85
2022/02/21 08:12:43;;;;;;;4.57;2.22;;;21.20;44.40;;;;;;5010167;28;92658;-84
2022/02/21 08:15:10;;;;;;;7.38;2.42;;;21.30;44.20;;;;;;5010570;28;91594;-85
2022/02/21 08:17:43;;;;;;;8.57;2.30;;;21.20;45.00;;;;;;5005777;28;93904;-83
2022/02/21 08:20:09;;;;;;;6.20;2.42;;;21.20;45.10;;;;;;5007730;28;95525;-83
2022/02/21 08:22:35;;;;;;;10.80;2.70;;;21.20;44.20;;;;;;5009961;28;93309;-82
2022/02/21 08:25:02;;;;;;;14.48;3.20;;;21.20;42.30;;;;;;5009075;28;93038;-84
2022/02/21 08:27:28;;;;;;;12.23;2.80;;;21.20;41.80;;;;;;5009207;28;93006;-85
2022/02/21 08:29:53;;;;;;;9.68;3.15;;;21.20;42.30;;;;;;5009654;28;92742;-85
2022/02/21 08:32:19;;;;;;;8.10;3.30;;;21.20;43.20;;;;;;4958042;27;92783;-80
2022/02/21 08:34:47;;;;;;;11.70;3.28;;;21.20;44.00;;;;;;5009634;28;92363;-81
2022/02/21 08:37:15;;;;;;;17.27;4.10;;;21.20;44.50;;;;;;5009573;28;92851;-83
2022/02/21 08:39:40;;;;;;;8.98;2.72;;;21.20;44.70;;;;;;5010378;28;92444;-82
2022/02/21 08:42:06;;;;;;;9.80;3.22;;;21.20;45.10;;;;;;5010621;28;92708;-81
2022/02/21 08:44:32;;;;;;;12.75;4.65;;;21.20;45.20;;;;;;5010092;28;92825;-81
2022/02/21 08:46:58;;;;;;;10.07;3.60;;;21.20;44.80;;;;;;5006998;28;96214;-81
2022/02/21 08:49:24;;;;;;;9.25;3.17;;;21.20;45.30;;;;;;5008727;28;93637;-82
2022/02/21 08:51:50;;;;;;;13.45;3.00;;;21.20;45.70;;;;;;5009586;28;92900;-81
2022/02/21 08:54:19;;;;;;;10.45;3.10;;;21.20;46.00;;;;;;5009208;28;92952;-81
2022/02/21 08:56:45;;;;;;;12.23;3.33;;;21.20;45.80;;;;;;5012292;28;93090;-81
2022/02/21 08:59:11;;;;;;;9.73;3.17;;;21.30;46.00;;;;;;5009014;28;93925;-82
2022/02/21 09:01:42;;;;;;;9.48;3.20;;;21.30;46.20;;;;;;5009388;28;92076;-82
2022/02/21 09:04:08;;;;;;;12.75;4.03;;;21.20;45.70;;;;;;5007983;28;92414;-82
2022/02/21 09:06:34;;;;;;;8.48;3.15;;;21.20;45.80;;;;;;5008081;28;93068;-81
2022/02/21 09:09:00;;;;;;;11.85;3.28;;;21.20;45.80;;;;;;5008965;28;92742;-80
2022/02/21 09:11:26;;;;;;;11.02;3.35;;;21.20;46.10;;;;;;5006007;28;93261;-79
2022/02/21 09:13:51;;;;;;;8.93;3.35;;;21.20;46.40;;;;;;5003337;28;92641;-80
2022/02/21 09:16:27;;;;;;;10.25;3.35;;;21.20;46.50;;;;;;5007918;28;95641;-83
2022/02/21 09:18:52;;;;;;;10.20;2.85;;;21.10;46.20;;;;;;5004417;28;93228;-82
2022/02/21 09:21:18;;;;;;;11.38;3.90;;;21.20;46.30;;;;;;5005028;28;92467;-83
2022/02/21 09:23:43;;;;;;;21.95;4.65;;;21.10;46.20;;;;;;5006016;28;91990;-84
2022/02/21 09:26:09;;;;;;;18.80;4.65;;;21.10;45.90;;;;;;5006330;28;93135;-81
2022/02/21 09:28:34;;;;;;;19.02;4.30;;;21.10;45.80;;;;;;5006804;28;91821;-81
2022/02/21 09:31:00;;;;;;;36.55;8.13;;;21.10;45.70;;;;;;5006631;28;92864;-82
2022/02/21 09:33:26;;;;;;;23.83;6.55;;;21.10;44.50;;;;;;5004116;28;92036;-81
2022/02/21 09:35:52;;;;;;;31.05;8.60;;;21.20;45.40;;;;;;5003995;28;96594;-82
2022/02/21 09:38:17;;;;;;;23.35;5.75;;;21.10;45.10;;;;;;5002382;28;94529;-84
2022/02/21 09:40:44;;;;;;;24.73;6.53;;;21.20;45.60;;;;;;5004904;28;93136;-81
2022/02/21 09:43:13;;;;;;;25.30;7.13;;;21.20;45.30;;;;;;5004115;28;92936;-83
2022/02/21 09:45:42;;;;;;;24.70;6.15;;;21.10;44.90;;;;;;5004526;28;92784;-84
2022/02/21 09:48:11;;;;;;;18.40;6.20;;;21.20;45.70;;;;;;5004375;28;92663;-82
2022/02/21 09:50:37;;;;;;;25.65;6.13;;;21.20;45.70;;;;;;5006153;28;92068;-83
2022/02/21 09:53:04;;;;;;;19.70;5.82;;;21.10;45.70;;;;;;5005172;28;91681;-82
2022/02/21 09:55:34;;;;;;;22.60;5.78;;;21.20;45.80;;;;;;5002889;28;92807;-84
2022/02/21 09:58:00;;;;;;;;;;;21.20;45.80;;;;;;5020558;28;95063;-82
2022/02/21 10:00:26;;;;;;;23.02;5.45;;;21.10;45.80;;;;;;5002990;28;93684;-83
2022/02/21 10:02:52;;;;;;;27.10;6.45;;;21.20;45.80;;;;;;5001540;28;92003;-82
2022/02/21 10:05:28;;;;;;;18.13;6.35;;;21.10;45.90;;;;;;5002254;28;92995;-81
2022/02/21 10:07:55;;;;;;;23.65;6.63;;;21.20;45.80;;;;;;5002563;28;92940;-82
2022/02/21 10:10:24;;;;;;;22.48;6.38;;;21.20;45.80;;;;;;5005733;28;92734;-83
2022/02/21 10:12:58;;;;;;;20.58;6.53;;;21.10;45.70;;;;;;5007952;28;92372;-81
2022/02/21 10:15:26;;;;;;;17.85;5.47;;;21.20;45.60;;;;;;5007068;28;93380;-83
2022/02/21 10:18:18;;;;;;;21.95;5.60;;;21.20;45.80;;;;;;5007097;28;92359;-82
2022/02/21 10:20:57;;;;;;;22.83;5.20;;;21.20;46.00;;;;;;5008062;28;93492;-80
2022/02/21 10:23:23;;;;;;;21.58;5.80;;;21.20;46.10;;;;;;5005805;28;94120;-79
2022/02/21 10:25:59;;;;;;;22.15;5.60;;;21.20;45.70;;;;;;5006449;28;96105;-81
2022/02/21 10:28:32;;;;;;;22.50;5.85;;;21.20;45.90;;;;;;5007715;28;93117;-83
2022/02/21 10:31:10;;;;;;;20.88;5.13;;;21.30;46.10;;;;;;5006223;28;92268;-83
2022/02/21 10:33:36;;;;;;;17.63;5.43;;;21.30;46.00;;;;;;5006233;28;92217;-84
2022/02/21 10:36:02;;;;;;;18.42;5.40;;;21.30;46.00;;;;;;5006968;28;95130;-81
2022/02/21 10:38:42;;;;;;;20.30;5.40;;;21.30;46.50;;;;;;5007966;28;92982;-84
2022/02/21 10:41:08;;;;;;;18.85;5.28;;;21.30;46.70;;;;;;5007060;28;93137;-80
2022/02/21 10:43:34;;;;;;;19.33;5.13;;;21.30;46.40;;;;;;5008340;28;91695;-83
2022/02/21 10:46:15;;;;;;;21.27;5.18;;;21.20;46.30;;;;;;5010574;28;93011;-84
2022/02/21 10:48:43;;;;;;;16.90;5.47;;;21.30;46.80;;;;;;5009494;28;92314;-81
2022/02/21 10:51:09;;;;;;;17.02;5.32;;;21.20;46.80;;;;;;5009406;28;93718;-82
2022/02/21 10:53:44;;;;;;;16.75;4.85;;;21.30;46.90;;;;;;5007000;28;92620;-82
2022/02/21 10:56:12;;;;;;;17.52;4.78;;;21.20;47.10;;;;;;5008382;28;92183;-81
2022/02/21 10:58:37;;;;;;;16.30;4.82;;;21.20;47.20;;;;;;5010512;28;92612;-82
2022/02/21 11:01:05;;;;;;;17.98;5.20;;;21.30;47.50;;;;;;5011436;28;92809;-83
2022/02/21 11:03:31;;;;;;;13.48;5.28;;;21.20;47.70;;;;;;5011072;28;93135;-83
2022/02/21 11:06:01;;;;;;;14.85;4.72;;;21.30;47.50;;;;;;5008532;28;95178;-81
2022/02/21 11:08:29;;;;;;;13.18;5.30;;;21.20;47.10;;;;;;5010811;28;92611;-81
2022/02/21 11:10:59;;;;;;;16.88;5.00;;;21.20;47.40;;;;;;5009149;28;92887;-80
2022/02/21 11:13:28;;;;;;;17.38;5.15;;;21.30;47.50;;;;;;5010816;28;93041;-81
2022/02/21 11:15:56;;;;;;;24.27;5.82;;;21.20;47.40;;;;;;5007894;28;95653;-81
2022/02/21 11:18:22;;;;;;;24.23;6.15;;;21.30;47.30;;;;;;5009676;28;94461;-81
2022/02/21 11:20:48;;;;;;;20.70;5.47;;;21.30;47.40;;;;;;5011025;28;92528;-81
2022/02/21 11:23:14;;;;;;;19.20;5.57;;;21.20;47.40;;;;;;5009910;28;92704;-81
2022/02/21 11:25:58;;;;;;;20.35;5.63;;;21.20;47.20;;;;;;5010186;28;93158;-82
2022/02/21 11:28:49;;;;;;;15.27;4.88;;;21.20;47.40;;;;;;5008874;28;92752;-81
2022/02/21 11:31:24;;;;;;;19.23;5.68;;;21.20;47.30;;;;;;5009497;28;93149;-81
2022/02/21 11:34:03;;;;;;;20.33;5.45;;;21.20;47.10;;;;;;5010345;28;92147;-81
2022/02/21 11:36:29;;;;;;;24.27;6.45;;;21.20;47.30;;;;;;5009387;28;92619;-83
2022/02/21 11:38:56;;;;;;;19.63;6.47;;;21.20;47.20;;;;;;5009787;28;92411;-81
2022/02/21 11:41:35;;;;;;;19.13;5.32;;;21.20;47.20;;;;;;5007319;28;93832;-81
2022/02/21 11:44:21;;;;;;;16.73;5.80;;;21.20;47.20;;;;;;5009564;28;92981;-84
2022/02/21 11:46:47;;;;;;;17.38;5.07;;;21.20;47.20;;;;;;5009931;28;93427;-81
2022/02/21 11:49:32;;;;;;;17.30;5.45;;;21.10;47.20;;;;;;5009972;28;92497;-81
2022/02/21 11:52:17;;;;;;;18.08;4.78;;;21.10;47.10;;;;;;5010480;28;93229;-83
2022/02/21 11:54:43;;;;;;;15.70;5.70;;;21.10;47.10;;;;;;5007028;28;93511;-83
2022/02/21 11:57:11;;;;;;;13.38;5.38;;;21.10;47.10;;;;;;5009382;28;93110;-82
2022/02/21 11:59:36;;;;;;;14.88;4.97;;;21.10;47.10;;;;;;5010365;28;93144;-82
2022/02/21 12:02:17;;;;;;;16.65;5.38;;;21.10;47.00;;;;;;5010022;28;91994;-82
2022/02/21 12:04:55;;;;;;;18.40;5.03;;;21.10;46.90;;;;;;5008501;28;92677;-83
2022/02/21 12:07:22;;;;;;;12.77;4.95;;;21.10;46.80;;;;;;5008555;28;94448;-83
2022/02/21 12:10:10;;;;;;;22.10;4.88;;;21.10;47.00;;;;;;5008286;28;93488;-82
2022/02/21 12:13:01;;;;;;;14.73;5.17;;;21.20;46.90;;;;;;5009404;28;93071;-84
2022/02/21 12:15:35;;;;;;;16.85;5.07;;;21.10;47.00;;;;;;5009157;28;93129;-81
2022/02/21 12:18:30;;;;;;;15.35;5.20;;;21.10;46.80;;;;;;5008865;28;93406;-85
2022/02/21 12:21:18;;;;;;;16.95;5.43;;;21.20;46.90;;;;;;5008619;28;92904;-82
2022/02/21 12:23:54;;;;;;;15.23;4.82;;;21.10;46.90;;;;;;5009944;28;92522;-83
2022/02/21 12:26:36;;;;;;;16.58;4.55;;;21.20;46.90;;;;;;5008529;28;91463;-83
2022/02/21 12:29:19;;;;;;;18.88;5.20;;;21.10;46.90;;;;;;5008811;28;94039;-81
2022/02/21 12:32:05;;;;;;;15.00;5.32;;;21.10;46.80;;;;;;5007684;28;94304;-84
2022/02/21 12:34:46;;;;;;;16.20;5.50;;;21.10;46.70;;;;;;5009402;28;93452;-83
2022/02/21 12:37:12;;;;;;;16.55;5.15;;;21.10;46.80;;;;;;5009176;28;92799;-80
2022/02/21 12:39:48;;;;;;;14.05;4.65;;;21.10;46.80;;;;;;5008458;28;93051;-83
2022/02/21 12:42:21;;;;;;;14.75;4.82;;;21.10;46.80;;;;;;5008314;28;92577;-82
2022/02/21 12:44:46;;;;;;;16.73;5.15;;;21.10;46.60;;;;;;5008586;28;92874;-81
2022/02/21 12:47:12;;;;;;;16.38;5.13;;;21.10;46.60;;;;;;5007489;28;93140;-83